Flight Track Log - Related Links

Times and Time Zones

All times are in EDT time to prevent confusion due to time zone crossing. See the UAL335 flight status page for this flight to view local times or setup timezone preferences in your user account.

Time Position Orientation Groundspeed Altitude Reporting Facility
EDT Latitude Longitude Course Direction KTS MPH feet Rate Location/Type
Thu 10:07:50 AM 29.9781 -95.2933 28° Northeast 172 198 900  Level Houston Center
Thu 10:08:45 AM 30.0217 -95.2639 30° Northeast 244 281 2,100 1,907 Climbing Houston Center
Thu 10:09:59 AM 30.1072 -95.2367 15° North 283 326 5,000 2,667 Climbing Houston Center
Thu 10:10:00 AM 30.4544 -95.1374 27° Northeast  Level FlightAware Approximate
Thu 10:11:00 AM 30.5672 -95.0774 30° Northeast  Level FlightAware Approximate
Thu 10:11:00 AM 30.1867 -95.2100 16° North 291 335 8,100  Level Houston Center
Thu 10:12:00 AM 30.6751 -95.0031 28° Northeast  Level FlightAware Approximate
Thu 10:12:01 AM 30.2742 -95.1800 16° North 325 374 10,000  Level Houston Center
Thu 10:13:00 AM 30.7859 -94.9338 28° Northeast  Level FlightAware Approximate
Thu 10:13:18 AM 30.3897 -95.1414 16° North 363 418 11,700  Level Houston Center
Thu 10:14:20 AM 30.4992 -95.1036 17° North 388 447 14,200 2,177 Climbing Houston Center
Thu 10:15:22 AM 30.6064 -95.0661 17° North 396 456 16,200 1,742 Climbing Houston Center
Thu 10:16:24 AM 30.7067 -95.0019 29° Northeast 412 474 17,800 1,355 Climbing Houston Center
Thu 10:17:26 AM 30.8078 -94.9383 28° Northeast 412 474 19,000 1,452 Climbing Houston Center
Thu 10:18:28 AM 30.9347 -94.8606 28° Northeast 426 490 20,800 1,500 Climbing Houston Center
Thu 10:19:30 AM 31.0406 -94.7933 29° Northeast 437 503 22,100 1,258 Climbing Houston Center
Thu 10:20:32 AM 31.1481 -94.7258 28° Northeast 453 521 23,400 1,008 Climbing Houston Center
Thu 10:21:35 AM 31.2517 -94.6536 31° Northeast 457 526 24,200 960 Climbing Houston Center
Thu 10:22:37 AM 31.3828 -94.5647 30° Northeast 460 529 25,400 1,016 Climbing Houston Center
Thu 10:23:39 AM 31.4939 -94.4881 30° Northeast 464 534 26,300 774 Climbing Houston Center
Thu 10:24:41 AM 31.6053 -94.4108 31° Northeast 464 534 27,000 629 Climbing Houston Center
Thu 10:25:43 AM 31.7189 -94.3322 30° Northeast 471 542 27,600 629 Climbing Houston Center
Thu 10:26:45 AM 31.8344 -94.2517 31° Northeast 479 551 28,300 677 Climbing Houston Center
Thu 10:27:47 AM 31.9736 -94.1544 31° Northeast 483 556 29,000 629 Climbing Houston Center
Thu 10:28:49 AM 32.0881 -94.0742 31° Northeast 480 552 29,600 532 Climbing Houston Center
Thu 10:29:51 AM 32.2050 -93.9928 30° Northeast 485 558 30,100 528 Climbing Houston Center
Thu 10:30:54 AM 32.3225 -93.9069 32° Northeast 492 566 30,700 646 Climbing Houston Center
Thu 10:32:01 AM 32.4500 -93.8117 32° Northeast 492 566 31,500 714 Climbing Fort Worth Center
Thu 10:33:00 AM 32.5644 -93.7283 32° Northeast 487 560 32,200 756 Climbing Fort Worth Center
Thu 10:34:00 AM 32.6811 -93.6472 30° Northeast 482 555 33,000 645 Climbing Fort Worth Center
Thu 10:35:01 AM 32.7953 -93.5633 32° Northeast 482 555 33,500 500 Climbing Fort Worth Center
Thu 10:36:00 AM 32.9097 -93.4817 31° Northeast 482 555 34,000 555 Climbing Fort Worth Center
Thu 10:37:00 AM 33.0281 -93.3972 31° Northeast 482 555 34,600 500 Climbing Fort Worth Center
Thu 10:38:00 AM 33.1403 -93.3153 31° Northeast 482 555 35,000 200 Climbing Fort Worth Center
Thu 10:39:00 AM 33.2544 -93.2353 30° Northeast 477 549 35,000  Level Fort Worth Center
Thu 10:41:07 AM 33.5072 -93.0528 31° Northeast 490 564 35,000  Level Memphis Center
Thu 10:42:07 AM 33.6194 -92.9714 31° Northeast 478 550 35,000  Level Memphis Center
Thu 10:43:07 AM 33.7297 -92.8900 32° Northeast 473 544 35,000  Level Memphis Center
Thu 10:44:07 AM 33.8442 -92.8056 31° Northeast 473 544 35,000  Level Memphis Center
Thu 10:45:07 AM 33.9544 -92.7136 35° Northeast 473 544 35,000  Level Memphis Center
Thu 10:46:07 AM 34.0503 -92.6008 44° Northeast 473 544 35,000  Level Memphis Center
Thu 10:47:07 AM 34.1419 -92.4903 45° Northeast 468 539 35,000  Level Memphis Center
Thu 10:48:07 AM 34.2378 -92.3797 44° Northeast 468 539 35,000  Level Memphis Center
Thu 10:49:07 AM 34.3356 -92.2636 44° Northeast 468 539 35,000  Level Memphis Center
Thu 10:50:07 AM 34.4333 -92.1525 43° Northeast 468 539 35,000  Level Memphis Center
Thu 10:51:07 AM 34.5286 -92.0411 44° Northeast 468 539 35,000  Level Memphis Center
Thu 10:52:07 AM 34.6242 -91.9269 44° Northeast 468 539 35,000  Level Memphis Center
Thu 10:53:07 AM 34.7214 -91.8150 43° Northeast 468 539 35,000  Level Memphis Center
Thu 10:54:07 AM 34.8103 -91.7128 43° Northeast 468 539 35,000  Level Memphis Center
Thu 10:55:07 AM 34.9117 -91.5828 46° Northeast 468 539 35,000  Level Memphis Center
Thu 10:56:07 AM 35.0086 -91.4675 44° Northeast 475 547 35,000  Level Memphis Center
Thu 10:57:07 AM 35.1078 -91.3572 42° Northeast 480 552 35,000  Level Memphis Center
Thu 10:58:07 AM 35.2025 -91.2389 46° Northeast 480 552 35,000  Level Memphis Center
Thu 10:59:07 AM 35.2992 -91.1228 44° Northeast 480 552 35,000  Level Memphis Center
Thu 11:00:07 AM 35.3958 -91.0092 44° Northeast 480 552 35,000  Level Memphis Center
Thu 11:01:07 AM 35.4903 -90.8900 46° Northeast 485 558 35,000  Level Memphis Center
Thu 11:02:07 AM 35.5825 -90.7681 47° Northeast 485 558 35,000  Level Memphis Center
Thu 11:03:07 AM 35.6767 -90.6458 46° Northeast 485 558 35,000  Level Memphis Center
Thu 11:04:07 AM 35.7622 -90.5233 49° Northeast 478 550 35,000  Level Memphis Center
Thu 11:05:07 AM 35.8564 -90.4031 46° Northeast 478 550 35,000  Level Memphis Center
Thu 11:06:07 AM 35.9500 -90.2775 47° Northeast 483 556 35,000  Level Memphis Center
Thu 11:07:07 AM 36.0417 -90.1567 47° Northeast 483 556 35,000  Level Memphis Center
Thu 11:08:07 AM 36.1331 -90.0358 47° Northeast 483 556 35,000  Level Memphis Center
Thu 11:09:07 AM 36.2267 -89.9144 46° Northeast 478 550 35,000 150 Level Memphis Center
Thu 11:10:07 AM 36.3200 -89.7878 48° Northeast 478 550 35,300 545 Climbing Memphis Center
Thu 11:11:08 AM 36.4111 -89.6686 46° Northeast 473 544 36,100 750 Climbing Memphis Center
Thu 11:12:07 AM 36.5042 -89.5464 47° Northeast 473 544 36,800 454 Climbing Memphis Center
Thu 11:13:07 AM 36.5969 -89.4214 47° Northeast 473 544 37,000 100 Climbing Memphis Center
Thu 11:14:07 AM 36.6836 -89.2961 49° Northeast 473 544 37,000  Level Memphis Center
Thu 11:15:08 AM 36.7639 -89.1889 47° Northeast 473 544 37,000  Level Memphis Center
Thu 11:16:07 AM 36.8542 -89.0656 48° Northeast 473 544 37,000  Level Memphis Center
Thu 11:17:08 AM 36.9406 -88.9450 48° Northeast 473 544 37,000  Level Memphis Center
Thu 11:18:08 AM 37.0306 -88.8186 48° Northeast 473 544 37,000  Level Memphis Center
Thu 11:19:07 AM 37.1208 -88.6972 47° Northeast 473 544 37,000  Level Memphis Center
Thu 11:20:40 AM 37.2622 -88.4911 49° Northeast 479 551 37,000  Level Indianapolis Center
Thu 11:21:42 AM 37.3522 -88.3636 48° Northeast 483 556 37,000  Level Indianapolis Center
Thu 11:22:44 AM 37.4447 -88.2347 48° Northeast 489 563 37,000  Level Indianapolis Center
Thu 11:23:46 AM 37.5361 -88.1047 48° Northeast 490 564 37,000 48 Level Indianapolis Center
Thu 11:24:48 AM 37.6269 -87.9753 48° Northeast 488 562 37,100  Climbing Indianapolis Center
Thu 11:25:50 AM 37.7156 -87.8489 48° Northeast 479 551 37,000 -48 Descending Indianapolis Center
Thu 11:26:52 AM 37.8167 -87.7042 48° Northeast 474 545 37,000  Level Indianapolis Center
Thu 11:27:54 AM 37.9033 -87.5786 49° Northeast 473 544 37,000  Level Indianapolis Center
Thu 11:28:56 AM 37.9906 -87.4536 48° Northeast 472 543 37,000  Level Indianapolis Center
Thu 11:29:58 AM 38.0781 -87.3269 49° Northeast 474 545 37,000  Level Indianapolis Center
Thu 11:31:00 AM 38.1656 -87.1983 49° Northeast 480 552 37,000  Level Indianapolis Center
Thu 11:32:02 AM 38.2586 -87.0639 49° Northeast 485 558 37,000  Level Indianapolis Center
Thu 11:33:04 AM 38.3458 -86.9347 49° Northeast 484 557 37,000  Level Indianapolis Center
Thu 11:34:06 AM 38.4428 -86.7900 49° Northeast 490 564 37,000  Level Indianapolis Center
Thu 11:35:08 AM 38.5311 -86.6594 49° Northeast 486 559 37,000  Level Indianapolis Center
Thu 11:36:10 AM 38.6200 -86.5297 49° Northeast 485 558 37,000  Level Indianapolis Center
Thu 11:37:12 AM 38.7078 -86.3992 49° Northeast 482 555 37,000  Level Indianapolis Center
Thu 11:38:15 AM 38.8111 -86.2425 50° Northeast 479 551 37,000  Level Indianapolis Center
Thu 11:39:17 AM 38.8975 -86.1117 50° Northeast 479 551 37,000  Level Indianapolis Center
Thu 11:40:19 AM 38.9889 -85.9733 50° Northeast 479 551 37,000  Level Indianapolis Center
Thu 11:41:21 AM 39.0753 -85.8442 49° Northeast 480 552 37,000  Level Indianapolis Center
Thu 11:42:23 AM 39.1600 -85.7142 50° Northeast 477 549 37,000  Level Indianapolis Center
Thu 11:43:25 AM 39.2453 -85.5842 50° Northeast 479 551 37,000  Level Indianapolis Center
Thu 11:44:27 AM 39.3408 -85.4689 43° Northeast 478 550 37,000  Level Indianapolis Center
Thu 11:45:29 AM 39.4603 -85.3372 40° Northeast 475 547 37,000  Level Indianapolis Center
Thu 11:46:31 AM 39.5603 -85.2283 40° Northeast 472 543 37,000  Level Indianapolis Center
Thu 11:47:33 AM 39.6581 -85.1194 41° Northeast 469 540 37,000  Level Indianapolis Center
Thu 11:48:35 AM 39.7583 -85.0131 39° Northeast 467 537 37,000  Level Indianapolis Center
Thu 11:49:37 AM 39.8531 -84.8725 49° Northeast 470 541 37,000  Level Indianapolis Center
Thu 11:50:39 AM 39.9231 -84.7275 58° Northeast 467 537 37,000 -48 Level Indianapolis Center
Thu 11:51:41 AM 39.9886 -84.5808 60° Northeast 464 534 36,900 -48 Descending Indianapolis Center
Thu 11:52:43 AM 40.0542 -84.4336 60° Northeast 463 533 36,900 48 Level Indianapolis Center
Thu 11:53:45 AM 40.1183 -84.2853 60° Northeast 463 533 37,000  Climbing Indianapolis Center
Thu 11:54:47 AM 40.1833 -84.1369 60° Northeast 464 534 36,900  Descending Indianapolis Center
Thu 11:55:49 AM 40.2478 -83.9875 60° Northeast 465 535 37,000 48 Climbing Indianapolis Center
Thu 11:56:51 AM 40.3225 -83.8139 61° Northeast 463 533 37,000 -48 Level Indianapolis Center
Thu 11:57:53 AM 40.3858 -83.6650 61° Northeast 462 532 36,900  Descending Indianapolis Center
Thu 11:58:55 AM 40.4500 -83.5164 60° Northeast 461 531 37,000  Climbing Indianapolis Center
Thu 11:59:57 AM 40.5136 -83.3650 61° Northeast 466 536 36,900  Descending Indianapolis Center
Thu 12:01:00 PM 40.5772 -83.2136 61° Northeast 468 539 37,000 48 Climbing Indianapolis Center
Thu 12:02:02 PM 40.6408 -83.0556 62° Northeast 466 536 37,000  Level Indianapolis Center
Thu 12:03:04 PM 40.6919 -82.8950 67° East 471 542 37,000  Level Indianapolis Center
Thu 12:04:06 PM 40.7447 -82.7347 66° East 473 544 37,000  Level Indianapolis Center
Thu 12:05:08 PM 40.7978 -82.5739 66° East 474 545 37,000  Level Indianapolis Center
Thu 12:06:10 PM 40.8500 -82.4131 67° East 475 547 37,000  Level Indianapolis Center
Thu 12:07:12 PM 40.9117 -82.2253 66° East 473 544 37,000  Level Indianapolis Center
Thu 12:08:14 PM 40.9631 -82.0642 67° East 473 544 37,000  Level Indianapolis Center
Thu 12:09:16 PM 41.0144 -81.9033 67° East 474 545 37,000  Level Indianapolis Center
Thu 12:10:18 PM 41.0650 -81.7419 67° East 475 547 37,000  Level Indianapolis Center
Thu 12:11:34 PM 41.1369 -81.5261 66° East 474 545 37,000  Level Cleveland Center
Thu 12:12:34 PM 41.1839 -81.3639 69° East 474 545 37,000  Level Cleveland Center
Thu 12:13:34 PM 41.2369 -81.1989 67° East 474 545 37,000  Level Cleveland Center
Thu 12:14:34 PM 41.2878 -81.0364 67° East 474 545 37,000 50 Level Cleveland Center
Thu 12:15:34 PM 41.3383 -80.8764 67° East 474 545 37,100  Climbing Cleveland Center
Thu 12:16:34 PM 41.3886 -80.7106 68° East 479 551 37,000 -50 Descending Cleveland Center
Thu 12:17:34 PM 41.4367 -80.5500 68° East 470 541 37,000  Level Cleveland Center
Thu 12:18:34 PM 41.4867 -80.3892 67° East 470 541 37,000  Level Cleveland Center
Thu 12:19:34 PM 41.5342 -80.2392 67° East 475 547 37,000  Level Cleveland Center
Thu 12:20:34 PM 41.5817 -80.0725 69° East 475 547 37,000  Level Cleveland Center
Thu 12:21:34 PM 41.6369 -79.8942 67° East 475 547 37,000  Level Cleveland Center
Thu 12:22:34 PM 41.6797 -79.7381 70° East 475 547 37,000  Level Cleveland Center
Thu 12:23:34 PM 41.7344 -79.5564 68° East 480 552 37,000  Level Cleveland Center
Thu 12:24:34 PM 41.7850 -79.3886 68° East 475 547 37,000  Level Cleveland Center
Thu 12:25:34 PM 41.8331 -79.2233 69° East 475 547 37,000  Level Cleveland Center
Thu 12:26:34 PM 41.8789 -79.0578 70° East 475 547 37,000  Level Cleveland Center
Thu 12:27:34 PM 41.9289 -78.8919 68° East 475 547 37,000  Level Cleveland Center
Thu 12:28:34 PM 41.9761 -78.7231 69° East 475 547 37,000  Level Cleveland Center
Thu 12:29:34 PM 42.0214 -78.5594 70° East 475 547 37,000  Level Cleveland Center
Thu 12:30:34 PM 42.0664 -78.3986 69° East 469 540 37,000  Level Cleveland Center
Thu 12:31:34 PM 42.1131 -78.2264 70° East 469 540 37,000  Level Cleveland Center
Thu 12:32:34 PM 42.1617 -78.0619 68° East 474 545 37,000  Level Cleveland Center
Thu 12:33:34 PM 42.2078 -77.8919 70° East 474 545 37,000  Level Cleveland Center
Thu 12:34:34 PM 42.2539 -77.7217 70° East 474 545 37,000  Level Cleveland Center
Thu 12:35:34 PM 42.2994 -77.5511 70° East 474 545 37,000  Level Cleveland Center
Thu 12:37:42 PM 42.3972 -77.1839 70° East 476 548 37,000  Level Boston Center
Thu 12:38:42 PM 42.4397 -77.0069 72° East 481 554 37,000  Level Boston Center
Thu 12:39:42 PM 42.4581 -76.8619 80° East 481 554 37,000  Level Boston Center
Thu 12:40:42 PM 42.4831 -76.6411 81° East 491 565 37,000  Level Boston Center
Thu 12:41:42 PM 42.5025 -76.4536 82° East 496 571 37,000  Level Boston Center
Thu 12:42:42 PM 42.5214 -76.2689 82° East 501 577 37,000  Level Boston Center
Thu 12:43:42 PM 42.5394 -76.1036 82° East 494 568 37,000  Level Boston Center
Thu 12:44:42 PM 42.5556 -75.9186 83° East 494 568 37,000  Level Boston Center
Thu 12:45:42 PM 42.5736 -75.7333 82° East 499 574 37,000 -50 Level Boston Center
Thu 12:46:42 PM 42.5933 -75.5511 82° East 499 574 36,900 -50 Descending Boston Center
Thu 12:47:42 PM 42.6086 -75.3656 84° East 499 574 36,900  Level Boston Center
Thu 12:48:42 PM 42.6278 -75.1831 82° East 499 574 36,900 50 Level Boston Center
Thu 12:49:42 PM 42.6425 -75.0003 84° East 494 568 37,000 50 Climbing Boston Center
Thu 12:50:42 PM 42.6592 -74.8144 83° East 494 568 37,000 -50 Level Boston Center
Thu 12:51:42 PM 42.6772 -74.6317 82° East 494 568 36,900 -50 Descending Boston Center
Thu 12:52:42 PM 42.6911 -74.4486 84° East 494 568 36,900 50 Level Boston Center
Thu 12:53:42 PM 42.7089 -74.2625 83° East 494 568 37,000 50 Climbing Boston Center
Thu 12:54:42 PM 42.7222 -74.0764 84° East 494 568 37,000  Level Boston Center
Thu 12:55:54 PM 42.7392 -73.8875 83° East 499 574 37,000  Level Boston Center
Thu 12:56:54 PM 42.7336 -73.6611 92° East 499 574 37,000 -200 Level Boston Center
Thu 12:57:54 PM 42.7125 -73.4658 98° East 499 574 36,600 -1,700 Descending Boston Center
Thu 12:58:54 PM 42.6953 -73.2792 97° East 504 580 33,600 -2,600 Descending Boston Center
Thu 12:59:54 PM 42.6778 -73.1206 98° East 509 586 31,400 -2,650 Descending Boston Center
Thu 01:00:54 PM 42.6497 -72.8775 99° East 530 610 28,300 -2,650 Descending Boston Center
Thu 01:01:54 PM 42.6272 -72.6969 100° East 517 595 26,100 -2,600 Descending Boston Center
Thu 01:02:54 PM 42.6025 -72.5106 100° East 499 574 23,100 -2,650 Descending Boston Center
Thu 01:03:54 PM 42.5817 -72.3331 99° East 493 567 20,800 -2,050 Descending Boston Center
Thu 01:04:54 PM 42.5606 -72.1781 100° East 451 519 19,000 -2,050 Descending Boston Center
Thu 01:05:54 PM 42.5414 -72.0006 98° East 429 494 16,700 -2,150 Descending Boston Center
Thu 01:06:54 PM 42.5281 -71.8653 98° East 419 482 14,700 -2,700 Descending Boston Center
Thu 01:07:54 PM 42.5125 -71.7050 97° East 399 459 11,300 -2,016 Descending Boston Center
Thu 01:09:02 PM 42.5000 -71.5500 96° East 350 403 10,400 -1,031 Descending KA90
Thu 01:10:02 PM 42.4833 -71.4333 101° East 313 360 9,100 -950 Descending KA90
Thu 01:11:02 PM 42.4833 -71.3167 90° East 306 352 8,500 -1,050 Descending KA90
Thu 01:12:02 PM 42.4667 -71.2000 101° East 297 342 7,000 -714 Descending KA90
Thu 01:13:08 PM 42.4500 -71.1000 103° East 246 283 7,000 -48 Level KA90
Thu 01:14:08 PM 42.4333 -71.0167 105° East 250 288 6,900 -500 Descending KA90
Thu 01:15:08 PM 42.3833 -70.9667 144° Southeast 234 269 6,000 -450 Descending KA90
Thu 01:16:08 PM 42.3167 -70.9333 160° South 233 268 6,000 -474 Level KA90
Thu 01:17:02 PM 42.2667 -70.9500 194° South 216 249 5,100 -737 Descending KA90
Thu 01:18:02 PM 42.2167 -70.9833 206° Southwest 216 249 4,600 -550 Descending KA90
Thu 01:19:02 PM 42.1500 -71.0000 191° South 221 254 4,000 -300 Descending KA90
Thu 01:20:02 PM 42.1500 -71.0667 270° West 225 259 4,000  Level KA90

Login

Don't have an account? Register now (free) for customized features, flight alerts, and more!